sensor_id;sensor_type;location;lat;lon;timestamp;temperature;humidity
62154;DHT22;48140;45.486;9.226;2023-03-01T00:00:40;6.30;93.30
62154;DHT22;48140;45.486;9.226;2023-03-01T00:03:06;6.20;93.30
62154;DHT22;48140;45.486;9.226;2023-03-01T00:05:31;6.20;93.60
62154;DHT22;48140;45.486;9.226;2023-03-01T00:07:57;6.20;93.70
62154;DHT22;48140;45.486;9.226;2023-03-01T00:10:23;6.20;93.70
62154;DHT22;48140;45.486;9.226;2023-03-01T00:12:49;6.20;93.70
62154;DHT22;48140;45.486;9.226;2023-03-01T00:15:14;6.20;93.70
62154;DHT22;48140;45.486;9.226;2023-03-01T00:17:40;6.20;93.70
62154;DHT22;48140;45.486;9.226;2023-03-01T00:20:06;6.10;93.70
62154;DHT22;48140;45.486;9.226;2023-03-01T00:22:36;6.20;93.70
62154;DHT22;48140;45.486;9.226;2023-03-01T00:25:02;6.10;93.50
62154;DHT22;48140;45.486;9.226;2023-03-01T00:27:28;6.10;93.70
62154;DHT22;48140;45.486;9.226;2023-03-01T00:29:53;6.10;93.80
62154;DHT22;48140;45.486;9.226;2023-03-01T00:32:19;6.10;94.10
62154;DHT22;48140;45.486;9.226;2023-03-01T00:34:45;6.10;94.00
62154;DHT22;48140;45.486;9.226;2023-03-01T00:37:22;6.10;93.70
62154;DHT22;48140;45.486;9.226;2023-03-01T00:39:49;6.10;93.80
62154;DHT22;48140;45.486;9.226;2023-03-01T00:42:15;6.10;93.90
62154;DHT22;48140;45.486;9.226;2023-03-01T00:44:40;6.10;94.00
62154;DHT22;48140;45.486;9.226;2023-03-01T00:47:06;6.10;94.10
62154;DHT22;48140;45.486;9.226;2023-03-01T00:49:32;6.10;94.10
62154;DHT22;48140;45.486;9.226;2023-03-01T00:51:57;6.10;94.10
62154;DHT22;48140;45.486;9.226;2023-03-01T00:54:23;6.10;93.90
62154;DHT22;48140;45.486;9.226;2023-03-01T00:56:48;6.10;93.80
62154;DHT22;48140;45.486;9.226;2023-03-01T00:59:14;6.10;93.80
62154;DHT22;48140;45.486;9.226;2023-03-01T01:01:40;6.00;94.10
62154;DHT22;48140;45.486;9.226;2023-03-01T01:04:08;6.00;93.80
62154;DHT22;48140;45.486;9.226;2023-03-01T01:06:37;6.00;93.80
62154;DHT22;48140;45.486;9.226;2023-03-01T01:09:06;6.10;93.80
62154;DHT22;48140;45.486;9.226;2023-03-01T01:11:32;6.10;93.80
62154;DHT22;48140;45.486;9.226;2023-03-01T01:13:58;6.10;94.10
62154;DHT22;48140;45.486;9.226;2023-03-01T01:16:26;6.10;93.30
62154;DHT22;48140;45.486;9.226;2023-03-01T01:18:53;6.10;93.30
62154;DHT22;48140;45.486;9.226;2023-03-01T01:21:20;6.10;93.10
62154;DHT22;48140;45.486;9.226;2023-03-01T01:23:47;6.10;93.30
62154;DHT22;48140;45.486;9.226;2023-03-01T01:26:18;6.10;93.20
62154;DHT22;48140;45.486;9.226;2023-03-01T01:28:45;6.10;93.00
62154;DHT22;48140;45.486;9.226;2023-03-01T01:31:11;6.00;93.10
62154;DHT22;48140;45.486;9.226;2023-03-01T01:33:37;6.00;93.30
62154;DHT22;48140;45.486;9.226;2023-03-01T01:36:04;6.00;93.40
62154;DHT22;48140;45.486;9.226;2023-03-01T01:38:30;6.00;93.30
62154;DHT22;48140;45.486;9.226;2023-03-01T01:40:56;6.00;93.20
62154;DHT22;48140;45.486;9.226;2023-03-01T01:43:27;6.00;93.40
62154;DHT22;48140;45.486;9.226;2023-03-01T01:46:03;6.10;94.00
62154;DHT22;48140;45.486;9.226;2023-03-01T01:48:46;6.10;93.40
62154;DHT22;48140;45.486;9.226;2023-03-01T01:51:18;6.10;93.20
62154;DHT22;48140;45.486;9.226;2023-03-01T01:53:48;6.10;93.30
62154;DHT22;48140;45.486;9.226;2023-03-01T01:56:17;6.10;93.30
62154;DHT22;48140;45.486;9.226;2023-03-01T01:58:44;6.10;93.10
62154;DHT22;48140;45.486;9.226;2023-03-01T02:01:11;6.10;93.10
62154;DHT22;48140;45.486;9.226;2023-03-01T02:11:23;6.10;93.30
62154;DHT22;48140;45.486;9.226;2023-03-01T02:13:49;6.00;93.20
62154;DHT22;48140;45.486;9.226;2023-03-01T02:16:16;6.00;93.40
62154;DHT22;48140;45.486;9.226;2023-03-01T02:18:43;6.10;93.40
62154;DHT22;48140;45.486;9.226;2023-03-01T02:21:22;6.00;93.60
62154;DHT22;48140;45.486;9.226;2023-03-01T02:23:52;6.10;93.30
62154;DHT22;48140;45.486;9.226;2023-03-01T02:26:23;6.50;93.60
62154;DHT22;48140;45.486;9.226;2023-03-01T02:28:51;6.80;93.40
62154;DHT22;48140;45.486;9.226;2023-03-01T02:31:19;7.20;93.60
62154;DHT22;48140;45.486;9.226;2023-03-01T02:34:05;6.00;93.20
62154;DHT22;48140;45.486;9.226;2023-03-01T02:36:39;6.00;93.40
62154;DHT22;48140;45.486;9.226;2023-03-01T02:39:08;6.00;93.00
62154;DHT22;48140;45.486;9.226;2023-03-01T02:41:41;6.10;93.10
62154;DHT22;48140;45.486;9.226;2023-03-01T02:44:08;6.00;93.10
62154;DHT22;48140;45.486;9.226;2023-03-01T02:46:34;6.00;93.40
62154;DHT22;48140;45.486;9.226;2023-03-01T02:48:59;6.00;93.50
62154;DHT22;48140;45.486;9.226;2023-03-01T02:51:48;6.60;93.60
62154;DHT22;48140;45.486;9.226;2023-03-01T02:54:33;6.50;93.60
62154;DHT22;48140;45.486;9.226;2023-03-01T02:57:02;5.90;93.40
62154;DHT22;48140;45.486;9.226;2023-03-01T02:59:31;5.80;93.40
62154;DHT22;48140;45.486;9.226;2023-03-01T03:02:00;6.10;93.70
62154;DHT22;48140;45.486;9.226;2023-03-01T03:04:26;6.40;94.00
62154;DHT22;48140;45.486;9.226;2023-03-01T03:06:52;5.70;93.90
62154;DHT22;48140;45.486;9.226;2023-03-01T03:09:18;5.70;93.90
62154;DHT22;48140;45.486;9.226;2023-03-01T03:11:44;5.70;94.40
62154;DHT22;48140;45.486;9.226;2023-03-01T03:14:11;5.70;93.80
62154;DHT22;48140;45.486;9.226;2023-03-01T03:16:43;7.00;94.30
62154;DHT22;48140;45.486;9.226;2023-03-01T03:19:09;5.70;93.90
62154;DHT22;48140;45.486;9.226;2023-03-01T03:21:35;5.70;93.80
62154;DHT22;48140;45.486;9.226;2023-03-01T03:24:01;5.70;94.00
62154;DHT22;48140;45.486;9.226;2023-03-01T03:26:27;5.40;94.10
62154;DHT22;48140;45.486;9.226;2023-03-01T03:28:52;5.60;93.80
62154;DHT22;48140;45.486;9.226;2023-03-01T03:31:18;6.50;94.40
62154;DHT22;48140;45.486;9.226;2023-03-01T03:33:44;5.60;93.90
62154;DHT22;48140;45.486;9.226;2023-03-01T03:36:09;6.40;94.50
62154;DHT22;48140;45.486;9.226;2023-03-01T03:38:43;5.60;94.00
62154;DHT22;48140;45.486;9.226;2023-03-01T03:41:09;6.20;94.00
62154;DHT22;48140;45.486;9.226;2023-03-01T03:43:36;5.60;93.90
62154;DHT22;48140;45.486;9.226;2023-03-01T03:46:03;5.60;94.00
62154;DHT22;48140;45.486;9.226;2023-03-01T03:48:36;5.60;93.90
62154;DHT22;48140;45.486;9.226;2023-03-01T03:51:03;6.10;94.00
62154;DHT22;48140;45.486;9.226;2023-03-01T03:53:32;5.60;94.10
62154;DHT22;48140;45.486;9.226;2023-03-01T03:55:58;5.60;94.20
62154;DHT22;48140;45.486;9.226;2023-03-01T03:58:25;6.70;94.40
62154;DHT22;48140;45.486;9.226;2023-03-01T04:00:53;5.60;94.00
62154;DHT22;48140;45.486;9.226;2023-03-01T04:03:21;5.60;94.10
62154;DHT22;48140;45.486;9.226;2023-03-01T04:05:48;6.50;94.00
62154;DHT22;48140;45.486;9.226;2023-03-01T04:08:16;5.60;93.90
62154;DHT22;48140;45.486;9.226;2023-03-01T04:10:47;5.60;94.30
62154;DHT22;48140;45.486;9.226;2023-03-01T04:13:16;5.60;94.20
62154;DHT22;48140;45.486;9.226;2023-03-01T04:15:42;5.50;92.70
62154;DHT22;48140;45.486;9.226;2023-03-01T04:18:10;6.20;93.20
62154;DHT22;48140;45.486;9.226;2023-03-01T04:20:37;5.50;93.40
62154;DHT22;48140;45.486;9.226;2023-03-01T04:23:08;5.40;93.50
62154;DHT22;48140;45.486;9.226;2023-03-01T04:25:51;5.80;93.40
62154;DHT22;48140;45.486;9.226;2023-03-01T04:28:29;5.40;92.80
62154;DHT22;48140;45.486;9.226;2023-03-01T04:30:56;5.40;93.20
62154;DHT22;48140;45.486;9.226;2023-03-01T04:33:22;5.40;92.00
62154;DHT22;48140;45.486;9.226;2023-03-01T04:35:48;5.40;92.40
62154;DHT22;48140;45.486;9.226;2023-03-01T04:38:18;6.00;93.00
62154;DHT22;48140;45.486;9.226;2023-03-01T04:40:44;5.40;93.30
62154;DHT22;48140;45.486;9.226;2023-03-01T04:43:11;5.30;93.00
62154;DHT22;48140;45.486;9.226;2023-03-01T04:45:36;5.40;93.00
62154;DHT22;48140;45.486;9.226;2023-03-01T04:48:03;6.10;93.30
62154;DHT22;48140;45.486;9.226;2023-03-01T04:50:29;5.40;92.30
62154;DHT22;48140;45.486;9.226;2023-03-01T04:52:55;4.80;91.80
62154;DHT22;48140;45.486;9.226;2023-03-01T04:55:27;6.20;92.20
62154;DHT22;48140;45.486;9.226;2023-03-01T04:57:54;5.40;92.40
62154;DHT22;48140;45.486;9.226;2023-03-01T05:00:20;5.30;92.50
62154;DHT22;48140;45.486;9.226;2023-03-01T05:02:51;5.30;92.30
62154;DHT22;48140;45.486;9.226;2023-03-01T05:07:56;5.30;91.50
62154;DHT22;48140;45.486;9.226;2023-03-01T05:10:22;5.80;91.90
62154;DHT22;48140;45.486;9.226;2023-03-01T05:12:48;5.30;92.10
62154;DHT22;48140;45.486;9.226;2023-03-01T05:15:14;5.30;91.90
62154;DHT22;48140;45.486;9.226;2023-03-01T05:17:40;5.30;91.80
62154;DHT22;48140;45.486;9.226;2023-03-01T05:20:06;5.30;91.40
62154;DHT22;48140;45.486;9.226;2023-03-01T05:22:35;5.30;91.30
62154;DHT22;48140;45.486;9.226;2023-03-01T05:25:01;5.30;91.70
62154;DHT22;48140;45.486;9.226;2023-03-01T05:27:27;5.30;91.50
62154;DHT22;48140;45.486;9.226;2023-03-01T05:29:52;5.30;91.50
62154;DHT22;48140;45.486;9.226;2023-03-01T05:32:18;5.60;91.60
62154;DHT22;48140;45.486;9.226;2023-03-01T05:34:44;6.30;91.50
62154;DHT22;48140;45.486;9.226;2023-03-01T05:37:12;5.30;90.60
62154;DHT22;48140;45.486;9.226;2023-03-01T05:39:37;5.20;91.20
62154;DHT22;48140;45.486;9.226;2023-03-01T05:42:03;5.30;90.20
62154;DHT22;48140;45.486;9.226;2023-03-01T05:44:29;5.30;91.00
62154;DHT22;48140;45.486;9.226;2023-03-01T05:46:55;5.20;90.50
62154;DHT22;48140;45.486;9.226;2023-03-01T05:49:23;5.20;90.30
62154;DHT22;48140;45.486;9.226;2023-03-01T05:51:51;5.20;90.70
62154;DHT22;48140;45.486;9.226;2023-03-01T05:54:18;5.20;90.80
62154;DHT22;48140;45.486;9.226;2023-03-01T05:56:45;6.50;90.80
62154;DHT22;48140;45.486;9.226;2023-03-01T05:59:11;5.20;90.00
62154;DHT22;48140;45.486;9.226;2023-03-01T06:01:38;6.00;89.20
62154;DHT22;48140;45.486;9.226;2023-03-01T06:04:04;5.20;89.50
62154;DHT22;48140;45.486;9.226;2023-03-01T06:06:33;5.20;89.80
62154;DHT22;48140;45.486;9.226;2023-03-01T06:08:59;4.80;88.80
62154;DHT22;48140;45.486;9.226;2023-03-01T06:11:24;5.20;90.00
62154;DHT22;48140;45.486;9.226;2023-03-01T06:14:11;5.20;90.30
62154;DHT22;48140;45.486;9.226;2023-03-01T06:16:48;5.20;89.60
62154;DHT22;48140;45.486;9.226;2023-03-01T06:19:13;5.30;90.60
62154;DHT22;48140;45.486;9.226;2023-03-01T06:21:39;5.40;89.70
62154;DHT22;48140;45.486;9.226;2023-03-01T06:38:56;5.60;86.90
62154;DHT22;48140;45.486;9.226;2023-03-01T07:02:39;6.20;84.10
62154;DHT22;48140;45.486;9.226;2023-03-01T07:05:32;6.30;82.60
62154;DHT22;48140;45.486;9.226;2023-03-01T07:17:58;6.40;82.90
62154;DHT22;48140;45.486;9.226;2023-03-01T07:31:34;6.40;82.90
62154;DHT22;48140;45.486;9.226;2023-03-01T07:34:43;6.30;80.60
62154;DHT22;48140;45.486;9.226;2023-03-01T07:48:37;6.30;80.60
62154;DHT22;48140;45.486;9.226;2023-03-01T08:09:24;7.00;77.40
62154;DHT22;48140;45.486;9.226;2023-03-01T08:19:25;7.50;75.40
62154;DHT22;48140;45.486;9.226;2023-03-01T08:26:04;7.50;71.40
62154;DHT22;48140;45.486;9.226;2023-03-01T08:32:41;7.50;72.20
62154;DHT22;48140;45.486;9.226;2023-03-01T08:38:27;7.50;75.80
62154;DHT22;48140;45.486;9.226;2023-03-01T08:41:02;7.40;76.80
62154;DHT22;48140;45.486;9.226;2023-03-01T08:44:19;7.40;78.00
62154;DHT22;48140;45.486;9.226;2023-03-01T08:46:59;7.40;79.10
62154;DHT22;48140;45.486;9.226;2023-03-01T08:49:31;7.40;79.40
62154;DHT22;48140;45.486;9.226;2023-03-01T08:51:57;7.40;80.40
62154;DHT22;48140;45.486;9.226;2023-03-01T08:57:03;7.50;80.40
62154;DHT22;48140;45.486;9.226;2023-03-01T08:59:32;7.60;80.50
62154;DHT22;48140;45.486;9.226;2023-03-01T09:02:16;7.60;80.70
62154;DHT22;48140;45.486;9.226;2023-03-01T09:05:27;7.60;80.20
62154;DHT22;48140;45.486;9.226;2023-03-01T09:18:38;8.00;79.50
62154;DHT22;48140;45.486;9.226;2023-03-01T09:22:28;8.30;78.60
62154;DHT22;48140;45.486;9.226;2023-03-01T09:26:06;8.40;75.90
62154;DHT22;48140;45.486;9.226;2023-03-01T09:29:10;8.40;77.50
62154;DHT22;48140;45.486;9.226;2023-03-01T09:35:26;7.90;76.90
62154;DHT22;48140;45.486;9.226;2023-03-01T09:38:08;8.00;78.30
62154;DHT22;48140;45.486;9.226;2023-03-01T09:44:53;8.30;75.50
62154;DHT22;48140;45.486;9.226;2023-03-01T09:48:04;8.30;75.60
62154;DHT22;48140;45.486;9.226;2023-03-01T10:04:58;8.90;70.40
62154;DHT22;48140;45.486;9.226;2023-03-01T10:38:09;11.10;56.20
62154;DHT22;48140;45.486;9.226;2023-03-01T11:04:25;10.20;60.20
62154;DHT22;48140;45.486;9.226;2023-03-01T11:06:59;10.10;61.40
62154;DHT22;48140;45.486;9.226;2023-03-01T11:09:48;9.80;62.60
62154;DHT22;48140;45.486;9.226;2023-03-01T11:29:34;9.80;69.80
62154;DHT22;48140;45.486;9.226;2023-03-01T11:32:24;9.90;66.20
62154;DHT22;48140;45.486;9.226;2023-03-01T11:35:44;10.00;64.60
62154;DHT22;48140;45.486;9.226;2023-03-01T13:50:00;10.70;62.70
62154;DHT22;48140;45.486;9.226;2023-03-01T14:40:59;10.10;70.20
62154;DHT22;48140;45.486;9.226;2023-03-01T14:43:27;9.90;70.70
62154;DHT22;48140;45.486;9.226;2023-03-01T14:45:54;9.80;71.20
62154;DHT22;48140;45.486;9.226;2023-03-01T14:48:20;9.70;71.70
62154;DHT22;48140;45.486;9.226;2023-03-01T14:53:42;9.60;73.60
62154;DHT22;48140;45.486;9.226;2023-03-01T14:56:16;9.70;73.30
62154;DHT22;48140;45.486;9.226;2023-03-01T14:58:53;9.70;73.60
62154;DHT22;48140;45.486;9.226;2023-03-01T15:01:30;9.70;73.50
62154;DHT22;48140;45.486;9.226;2023-03-01T15:03:59;9.70;72.50
62154;DHT22;48140;45.486;9.226;2023-03-01T15:06:27;9.70;73.10
62154;DHT22;48140;45.486;9.226;2023-03-01T15:16:39;9.70;73.00
62154;DHT22;48140;45.486;9.226;2023-03-01T15:19:07;9.80;72.90
62154;DHT22;48140;45.486;9.226;2023-03-01T15:34:31;9.80;73.60
62154;DHT22;48140;45.486;9.226;2023-03-01T15:37:00;9.90;74.20
62154;DHT22;48140;45.486;9.226;2023-03-01T15:39:37;9.80;73.50
62154;DHT22;48140;45.486;9.226;2023-03-01T15:42:10;9.80;74.30
62154;DHT22;48140;45.486;9.226;2023-03-01T15:44:40;9.60;74.50
62154;DHT22;48140;45.486;9.226;2023-03-01T15:47:27;9.60;74.50
62154;DHT22;48140;45.486;9.226;2023-03-01T15:49:57;9.60;74.80
62154;DHT22;48140;45.486;9.226;2023-03-01T15:52:29;9.60;75.30
62154;DHT22;48140;45.486;9.226;2023-03-01T15:55:02;9.60;75.20
62154;DHT22;48140;45.486;9.226;2023-03-01T15:57:29;9.60;75.50
62154;DHT22;48140;45.486;9.226;2023-03-01T16:25:51;9.60;75.60
62154;DHT22;48140;45.486;9.226;2023-03-01T16:28:20;9.60;75.10
62154;DHT22;48140;45.486;9.226;2023-03-01T16:33:24;9.40;76.00
62154;DHT22;48140;45.486;9.226;2023-03-01T16:35:53;9.40;76.30
62154;DHT22;48140;45.486;9.226;2023-03-01T16:38:22;9.30;77.60
62154;DHT22;48140;45.486;9.226;2023-03-01T16:40:50;9.30;76.80
62154;DHT22;48140;45.486;9.226;2023-03-01T16:43:17;9.20;77.00
62154;DHT22;48140;45.486;9.226;2023-03-01T16:45:44;9.30;77.60
62154;DHT22;48140;45.486;9.226;2023-03-01T16:48:12;9.30;77.90
62154;DHT22;48140;45.486;9.226;2023-03-01T16:50:38;9.30;78.90
62154;DHT22;48140;45.486;9.226;2023-03-01T16:53:06;9.20;80.00
62154;DHT22;48140;45.486;9.226;2023-03-01T16:55:32;9.20;81.10
62154;DHT22;48140;45.486;9.226;2023-03-01T16:57:59;9.30;83.40
62154;DHT22;48140;45.486;9.226;2023-03-01T17:00:52;9.30;83.20
62154;DHT22;48140;45.486;9.226;2023-03-01T17:03:30;9.20;83.90
62154;DHT22;48140;45.486;9.226;2023-03-01T17:06:10;9.10;85.10
62154;DHT22;48140;45.486;9.226;2023-03-01T17:08:39;8.70;86.60
62154;DHT22;48140;45.486;9.226;2023-03-01T17:11:17;8.70;87.70
62154;DHT22;48140;45.486;9.226;2023-03-01T17:13:50;8.70;89.00
62154;DHT22;48140;45.486;9.226;2023-03-01T17:29:16;7.80;95.80
62154;DHT22;48140;45.486;9.226;2023-03-01T17:31:43;7.70;96.40
62154;DHT22;48140;45.486;9.226;2023-03-01T17:34:09;7.60;97.50
62154;DHT22;48140;45.486;9.226;2023-03-01T17:36:35;7.50;97.40
62154;DHT22;48140;45.486;9.226;2023-03-01T17:39:11;7.40;98.80
62154;DHT22;48140;45.486;9.226;2023-03-01T17:44:43;7.40;99.90
62154;DHT22;48140;45.486;9.226;2023-03-01T17:47:12;7.30;99.90
62154;DHT22;48140;45.486;9.226;2023-03-01T17:49:40;7.30;99.90
62154;DHT22;48140;45.486;9.226;2023-03-01T18:10:07;7.00;99.90
62154;DHT22;48140;45.486;9.226;2023-03-01T18:23:38;7.10;99.90
62154;DHT22;48140;45.486;9.226;2023-03-01T18:29:36;7.10;99.90
62154;DHT22;48140;45.486;9.226;2023-03-01T18:32:48;7.00;99.90
62154;DHT22;48140;45.486;9.226;2023-03-01T18:35:26;6.90;99.90
62154;DHT22;48140;45.486;9.226;2023-03-01T18:42:01;6.80;99.90
62154;DHT22;48140;45.486;9.226;2023-03-01T18:44:28;6.70;99.90
62154;DHT22;48140;45.486;9.226;2023-03-01T18:55:38;6.50;99.90
62154;DHT22;48140;45.486;9.226;2023-03-01T18:58:04;7.10;99.90
62154;DHT22;48140;45.486;9.226;2023-03-01T19:00:33;7.30;99.90
62154;DHT22;48140;45.486;9.226;2023-03-01T19:02:59;6.70;99.90
62154;DHT22;48140;45.486;9.226;2023-03-01T19:05:27;6.60;99.90
62154;DHT22;48140;45.486;9.226;2023-03-01T19:07:53;6.70;99.90
62154;DHT22;48140;45.486;9.226;2023-03-01T19:10:19;6.70;99.90
62154;DHT22;48140;45.486;9.226;2023-03-01T19:12:45;6.70;99.90
62154;DHT22;48140;45.486;9.226;2023-03-01T19:15:11;6.70;99.90
62154;DHT22;48140;45.486;9.226;2023-03-01T19:17:38;7.20;99.90
62154;DHT22;48140;45.486;9.226;2023-03-01T19:28:30;6.50;99.90
62154;DHT22;48140;45.486;9.226;2023-03-01T19:38:58;6.60;99.90
62154;DHT22;48140;45.486;9.226;2023-03-01T19:52:31;6.40;99.90
62154;DHT22;48140;45.486;9.226;2023-03-01T19:55:00;6.30;99.90
62154;DHT22;48140;45.486;9.226;2023-03-01T20:01:12;6.30;99.90
62154;DHT22;48140;45.486;9.226;2023-03-01T20:14:41;6.10;99.90
62154;DHT22;48140;45.486;9.226;2023-03-01T20:17:21;6.00;99.90
62154;DHT22;48140;45.486;9.226;2023-03-01T20:23:18;6.10;99.90
62154;DHT22;48140;45.486;9.226;2023-03-01T20:26:02;6.10;99.90
62154;DHT22;48140;45.486;9.226;2023-03-01T20:29:23;6.10;99.90
62154;DHT22;48140;45.486;9.226;2023-03-01T20:36:51;6.20;99.90
62154;DHT22;48140;45.486;9.226;2023-03-01T20:39:20;6.10;99.90
62154;DHT22;48140;45.486;9.226;2023-03-01T20:55:48;6.20;99.90
62154;DHT22;48140;45.486;9.226;2023-03-01T21:02:02;6.00;99.90
62154;DHT22;48140;45.486;9.226;2023-03-01T21:04:28;5.90;99.90
62154;DHT22;48140;45.486;9.226;2023-03-01T21:06:54;5.80;99.90
62154;DHT22;48140;45.486;9.226;2023-03-01T21:09:20;5.80;99.90
62154;DHT22;48140;45.486;9.226;2023-03-01T21:11:50;5.80;99.90
62154;DHT22;48140;45.486;9.226;2023-03-01T21:14:16;5.80;99.90
62154;DHT22;48140;45.486;9.226;2023-03-01T21:16:43;5.80;99.90
62154;DHT22;48140;45.486;9.226;2023-03-01T21:19:10;5.70;99.90
62154;DHT22;48140;45.486;9.226;2023-03-01T21:21:36;5.70;99.90
62154;DHT22;48140;45.486;9.226;2023-03-01T21:24:17;5.80;99.90
62154;DHT22;48140;45.486;9.226;2023-03-01T21:26:43;5.80;99.90
62154;DHT22;48140;45.486;9.226;2023-03-01T21:29:15;5.80;99.90
62154;DHT22;48140;45.486;9.226;2023-03-01T21:34:32;5.80;99.90
62154;DHT22;48140;45.486;9.226;2023-03-01T21:37:04;5.80;99.90
62154;DHT22;48140;45.486;9.226;2023-03-01T21:42:50;5.80;99.90
62154;DHT22;48140;45.486;9.226;2023-03-01T21:45:19;5.80;99.90
62154;DHT22;48140;45.486;9.226;2023-03-01T21:47:46;5.70;99.90
62154;DHT22;48140;45.486;9.226;2023-03-01T21:50:15;5.70;99.90
62154;DHT22;48140;45.486;9.226;2023-03-01T21:52:41;5.70;99.90
62154;DHT22;48140;45.486;9.226;2023-03-01T21:55:10;5.70;99.90
62154;DHT22;48140;45.486;9.226;2023-03-01T21:57:37;5.60;99.90
62154;DHT22;48140;45.486;9.226;2023-03-01T22:00:11;5.60;99.90
62154;DHT22;48140;45.486;9.226;2023-03-01T22:02:38;5.60;99.90
62154;DHT22;48140;45.486;9.226;2023-03-01T22:05:13;5.60;99.90
62154;DHT22;48140;45.486;9.226;2023-03-01T22:10:40;5.60;99.90
62154;DHT22;48140;45.486;9.226;2023-03-01T22:13:11;5.60;99.90
62154;DHT22;48140;45.486;9.226;2023-03-01T22:15:46;5.60;99.90
62154;DHT22;48140;45.486;9.226;2023-03-01T22:18:15;5.70;99.90
62154;DHT22;48140;45.486;9.226;2023-03-01T22:20:53;5.70;99.90
62154;DHT22;48140;45.486;9.226;2023-03-01T22:23:19;5.80;99.90
62154;DHT22;48140;45.486;9.226;2023-03-01T22:25:51;5.80;99.90
62154;DHT22;48140;45.486;9.226;2023-03-01T22:28:17;5.80;99.90
62154;DHT22;48140;45.486;9.226;2023-03-01T22:30:44;5.80;99.90
62154;DHT22;48140;45.486;9.226;2023-03-01T22:33:10;5.80;99.90
62154;DHT22;48140;45.486;9.226;2023-03-01T22:35:40;5.90;99.90
62154;DHT22;48140;45.486;9.226;2023-03-01T22:38:06;5.90;99.90
62154;DHT22;48140;45.486;9.226;2023-03-01T22:40:33;6.00;99.90
62154;DHT22;48140;45.486;9.226;2023-03-01T22:42:59;6.00;99.90
62154;DHT22;48140;45.486;9.226;2023-03-01T22:45:37;6.00;99.90
62154;DHT22;48140;45.486;9.226;2023-03-01T22:48:15;6.00;99.90
62154;DHT22;48140;45.486;9.226;2023-03-01T22:51:27;6.00;99.90
62154;DHT22;48140;45.486;9.226;2023-03-01T22:54:27;6.10;99.90
62154;DHT22;48140;45.486;9.226;2023-03-01T23:00:46;6.10;99.90
62154;DHT22;48140;45.486;9.226;2023-03-01T23:03:19;6.20;99.90
62154;DHT22;48140;45.486;9.226;2023-03-01T23:06:23;6.20;99.90
62154;DHT22;48140;45.486;9.226;2023-03-01T23:08:54;6.20;99.90
62154;DHT22;48140;45.486;9.226;2023-03-01T23:12:46;6.20;99.90
62154;DHT22;48140;45.486;9.226;2023-03-01T23:15:21;6.10;99.90
62154;DHT22;48140;45.486;9.226;2023-03-01T23:18:10;6.20;99.90
62154;DHT22;48140;45.486;9.226;2023-03-01T23:21:25;6.20;99.90
62154;DHT22;48140;45.486;9.226;2023-03-01T23:27:17;6.30;99.90
62154;DHT22;48140;45.486;9.226;2023-03-01T23:29:46;6.20;99.90
62154;DHT22;48140;45.486;9.226;2023-03-01T23:32:18;6.30;99.90
62154;DHT22;48140;45.486;9.226;2023-03-01T23:35:18;6.30;99.90
62154;DHT22;48140;45.486;9.226;2023-03-01T23:37:50;6.30;99.90
62154;DHT22;48140;45.486;9.226;2023-03-01T23:40:29;6.30;99.90
62154;DHT22;48140;45.486;9.226;2023-03-01T23:42:58;6.40;99.90
62154;DHT22;48140;45.486;9.226;2023-03-01T23:45:38;6.30;99.90
62154;DHT22;48140;45.486;9.226;2023-03-01T23:48:45;6.30;99.90
62154;DHT22;48140;45.486;9.226;2023-03-01T23:51:15;6.40;99.90
62154;DHT22;48140;45.486;9.226;2023-03-01T23:53:45;6.30;99.90
62154;DHT22;48140;45.486;9.226;2023-03-01T23:56:41;6.30;99.90
62154;DHT22;48140;45.486;9.226;2023-03-01T23:59:19;6.30;99.90
